Time;durP1;ratioP1;P1;durP2;ratioP2;P2;SDS_P1;SDS_P2;PMS_P1;PMS_P2;Temp;Humidity;BMP_temperature;BMP_pressure;BME280_temperature;BME280_humidity;BME280_pressure;Samples;Min_cycle;Max_cycle;Signal;HPM_P1;HPM_P2
2022/05/24 00:02:11;;;;;;;6.60;3.78;;;14.70;99.90;;;;;;5034316;28;20056;-73
2022/05/24 00:04:36;;;;;;;7.28;4.68;;;14.60;99.90;;;;;;5037433;28;20048;-72
2022/05/24 00:07:03;;;;;;;7.25;4.63;;;14.60;99.90;;;;;;5035654;28;20510;-74
2022/05/24 00:09:28;;;;;;;5.55;4.50;;;14.60;99.90;;;;;;5036697;28;20126;-73
2022/05/24 00:11:54;;;;;;;6.47;4.70;;;14.50;99.90;;;;;;5018746;28;20048;-74
2022/05/24 00:15:19;;;;;;;8.20;5.15;;;14.50;99.90;;;;;;5035779;28;20052;-72
2022/05/24 00:17:07;;;;;;;5.63;5.13;;;14.50;99.90;;;;;;5035959;28;20049;-73
2022/05/24 00:19:34;;;;;;;7.32;5.72;;;14.40;99.90;;;;;;5018428;28;20084;-73
2022/05/24 00:22:00;;;;;;;8.00;6.28;;;14.40;99.90;;;;;;5036115;28;20056;-73
2022/05/24 00:24:26;;;;;;;9.65;6.72;;;14.40;99.90;;;;;;5035762;28;20037;-73
2022/05/24 00:26:51;;;;;;;8.85;7.22;;;14.30;99.90;;;;;;5034729;28;20044;-74
2022/05/24 00:29:17;;;;;;;10.55;6.78;;;14.30;99.90;;;;;;5036190;28;20138;-73
2022/05/24 00:31:43;;;;;;;9.02;6.22;;;14.20;99.90;;;;;;5021070;28;20040;-74
2022/05/24 00:34:08;;;;;;;10.10;6.43;;;14.10;99.90;;;;;;5038993;28;20061;-75
2022/05/24 00:36:35;;;;;;;6.72;5.50;;;14.10;99.90;;;;;;5039183;28;20087;-74
2022/05/24 00:39:01;;;;;;;7.35;5.00;;;14.00;99.90;;;;;;5039494;28;20565;-74
2022/05/24 00:41:36;;;;;;;7.03;4.25;;;13.90;99.90;;;;;;5038771;28;20044;-73
2022/05/24 00:44:07;;;;;;;5.97;4.57;;;13.80;99.90;;;;;;5038897;28;20311;-73
2022/05/24 00:46:42;;;;;;;7.47;4.30;;;13.80;99.90;;;;;;5040342;28;20045;-74
2022/05/24 00:49:14;;;;;;;6.32;4.75;;;13.80;99.90;;;;;;5025109;28;20397;-73
2022/05/24 00:51:47;;;;;;;5.97;4.38;;;13.70;99.90;;;;;;5041339;28;20709;-75
2022/05/24 00:54:14;;;;;;;5.38;4.45;;;13.70;99.90;;;;;;5043326;28;20053;-74
2022/05/24 00:56:44;;;;;;;8.32;4.75;;;13.60;99.90;;;;;;5024796;28;20056;-74
2022/05/24 00:59:40;;;;;;;6.78;4.45;;;13.50;99.90;;;;;;5042011;28;20557;-73
2022/05/24 01:02:06;;;;;;;5.93;4.80;;;13.50;99.90;;;;;;5040421;28;20056;-73
2022/05/24 01:04:32;;;;;;;5.53;3.95;;;13.50;99.90;;;;;;5042074;28;20872;-74
2022/05/24 01:06:57;;;;;;;8.05;4.97;;;13.40;99.90;;;;;;5024489;28;20063;-72
2022/05/24 01:09:29;;;;;;;6.90;4.70;;;13.40;99.90;;;;;;5024659;28;20770;-74
2022/05/24 01:12:03;;;;;;;7.35;4.68;;;13.40;99.90;;;;;;5024904;28;20099;-74
2022/05/24 01:14:29;;;;;;;5.72;4.57;;;13.30;99.90;;;;;;5040615;28;20057;-74
2022/05/24 01:16:57;;;;;;;6.18;4.95;;;13.30;99.90;;;;;;5041697;28;20063;-74
2022/05/24 01:19:43;;;;;;;7.80;5.10;;;13.20;99.90;;;;;;5023966;28;20508;-73
2022/05/24 01:22:40;;;;;;;5.47;4.40;;;13.20;99.90;;;;;;5041722;28;20048;-74
2022/05/24 01:25:21;;;;;;;5.60;4.90;;;13.20;99.90;;;;;;5036926;28;20151;-74
2022/05/24 01:27:46;;;;;;;6.78;6.18;;;13.20;99.90;;;;;;5042277;28;20398;-74
2022/05/24 01:30:12;;;;;;;6.80;5.00;;;13.10;99.90;;;;;;5040871;28;20491;-73
2022/05/24 01:38:12;;;;;;;8.20;4.82;;;13.00;99.90;;;;;;5035344;28;20060;-73
2022/05/24 01:40:39;;;;;;;7.05;4.95;;;13.10;99.90;;;;;;5041060;28;20087;-74
2022/05/24 01:43:06;;;;;;;8.00;5.00;;;13.10;99.90;;;;;;5041137;28;20064;-74
2022/05/24 01:45:36;;;;;;;7.75;5.72;;;13.00;99.90;;;;;;5039718;28;20134;-73
2022/05/24 01:48:07;;;;;;;7.85;6.63;;;13.00;99.90;;;;;;5039487;28;20048;-74
2022/05/24 01:50:35;;;;;;;7.80;4.80;;;13.00;99.90;;;;;;5023370;28;20057;-73
2022/05/24 01:53:08;;;;;;;8.90;5.45;;;13.00;99.90;;;;;;5040158;28;20056;-73
2022/05/24 01:55:43;;;;;;;5.72;4.88;;;13.00;99.90;;;;;;5040422;28;20072;-74
2022/05/24 01:58:13;;;;;;;5.40;4.90;;;12.90;99.90;;;;;;5040039;28;20080;-73
2022/05/24 02:00:45;;;;;;;7.07;5.32;;;12.90;99.90;;;;;;5022727;28;20502;-74
2022/05/24 02:03:11;;;;;;;9.18;5.35;;;12.90;99.90;;;;;;5040134;28;20044;-74
2022/05/24 02:05:39;;;;;;;5.72;5.20;;;12.90;99.90;;;;;;5040404;28;20880;-74
2022/05/24 02:08:07;;;;;;;5.72;4.65;;;12.90;99.90;;;;;;5039633;28;20086;-73
2022/05/24 02:10:41;;;;;;;7.03;5.68;;;13.00;99.90;;;;;;5039755;28;20080;-74
2022/05/24 02:13:08;;;;;;;7.88;4.97;;;13.00;99.90;;;;;;5040373;28;20106;-74
2022/05/24 02:15:37;;;;;;;5.93;4.45;;;13.10;99.90;;;;;;5039904;28;20091;-73
2022/05/24 02:18:15;;;;;;;4.95;4.45;;;13.10;99.90;;;;;;5040214;28;20059;-73
2022/05/24 02:20:45;;;;;;;7.57;4.70;;;13.10;99.90;;;;;;5033642;28;20094;-74
2022/05/24 02:23:14;;;;;;;8.50;5.50;;;13.20;99.90;;;;;;5033919;28;20169;-73
2022/05/24 02:25:46;;;;;;;7.32;4.28;;;13.20;99.90;;;;;;5016489;28;20116;-73
2022/05/24 02:28:13;;;;;;;8.13;4.75;;;13.30;99.90;;;;;;5039466;28;20063;-74
2022/05/24 02:30:45;;;;;;;8.60;4.18;;;13.30;99.90;;;;;;5038997;28;20092;-75
2022/05/24 02:33:10;;;;;;;7.00;4.68;;;13.30;99.90;;;;;;5005805;28;20403;-74
2022/05/24 02:35:36;;;;;;;5.10;4.30;;;13.30;99.90;;;;;;5021743;28;20737;-73
2022/05/24 02:38:03;;;;;;;6.57;4.78;;;13.40;99.90;;;;;;5037394;28;20049;-74
2022/05/24 02:43:13;;;;;;;6.88;4.80;;;13.40;99.90;;;;;;5040688;28;20334;-73
2022/05/24 02:45:38;;;;;;;9.15;4.82;;;13.40;99.90;;;;;;5022607;28;20584;-74
2022/05/24 02:48:05;;;;;;;9.82;5.30;;;13.40;99.90;;;;;;5022807;28;20056;-74
2022/05/24 02:50:30;;;;;;;12.50;7.25;;;13.40;99.90;;;;;;5040086;28;20098;-73
2022/05/24 02:52:56;;;;;;;11.35;7.57;;;13.40;99.90;;;;;;5022517;28;20056;-74
2022/05/24 02:55:22;;;;;;;11.48;7.22;;;13.40;99.90;;;;;;5022189;28;20056;-74
2022/05/24 02:57:47;;;;;;;8.32;6.85;;;13.40;99.90;;;;;;5040149;28;20496;-74
2022/05/24 03:00:21;;;;;;;9.65;7.25;;;13.50;99.90;;;;;;5021763;28;20049;-74
2022/05/24 03:02:49;;;;;;;10.82;7.85;;;13.50;99.90;;;;;;5022348;28;20036;-74
2022/05/24 03:05:16;;;;;;;13.77;8.75;;;13.50;99.90;;;;;;5040398;28;20083;-74
2022/05/24 03:10:28;;;;;;;11.68;7.97;;;13.50;99.90;;;;;;5022337;28;20092;-74
2022/05/24 03:15:39;;;;;;;16.98;9.65;;;13.60;99.90;;;;;;5040503;28;20511;-73
2022/05/24 03:18:06;;;;;;;11.95;9.27;;;13.50;99.90;;;;;;5005375;28;20052;-74
2022/05/24 03:20:32;;;;;;;18.40;10.85;;;13.60;99.90;;;;;;5022696;28;20165;-74
2022/05/24 03:22:57;;;;;;;13.57;10.65;;;13.70;99.90;;;;;;5039355;28;20049;-74
2022/05/24 03:25:23;;;;;;;17.77;12.48;;;13.70;99.90;;;;;;5039780;28;20489;-74
2022/05/24 03:27:49;;;;;;;15.50;10.77;;;13.70;99.90;;;;;;5021696;28;20049;-74
2022/05/24 03:30:15;;;;;;;15.63;10.40;;;13.70;99.90;;;;;;5038783;28;20052;-74
2022/05/24 03:32:41;;;;;;;19.48;12.85;;;13.80;99.90;;;;;;5039693;28;20056;-74
2022/05/24 03:35:11;;;;;;;16.73;11.38;;;13.70;99.90;;;;;;5039080;28;20598;-74
2022/05/24 03:37:37;;;;;;;19.90;13.45;;;13.80;99.90;;;;;;5039234;28;20149;-74
2022/05/24 03:40:04;;;;;;;18.52;13.40;;;13.80;99.90;;;;;;5039211;28;20130;-74
2022/05/24 03:42:30;;;;;;;19.27;13.52;;;13.80;99.90;;;;;;5039276;28;20099;-73
2022/05/24 03:44:56;;;;;;;50.28;24.42;;;13.80;99.90;;;;;;5039540;28;20230;-74
2022/05/24 03:47:21;;;;;;;24.50;16.15;;;13.80;99.90;;;;;;5039773;28;20099;-74
2022/05/24 03:49:47;;;;;;;25.50;14.80;;;13.80;99.90;;;;;;5021003;28;20056;-74
2022/05/24 03:52:13;;;;;;;23.15;14.77;;;13.80;99.90;;;;;;5038747;28;20053;-74
2022/05/24 03:54:39;;;;;;;21.90;15.05;;;13.80;99.90;;;;;;5038868;28;20140;-74
2022/05/24 03:59:49;;;;;;;19.60;15.20;;;13.90;99.90;;;;;;5038793;28;20489;-74
2022/05/24 04:02:15;;;;;;;27.42;16.90;;;13.90;99.90;;;;;;5021195;28;20140;-73
2022/05/24 04:04:42;;;;;;;27.90;17.52;;;13.90;99.90;;;;;;5039039;28;20143;-74
2022/05/24 04:07:08;;;;;;;28.23;16.45;;;13.90;99.90;;;;;;5038626;28;20190;-74
2022/05/24 04:09:35;;;;;;;22.67;15.88;;;14.00;99.90;;;;;;5037945;28;20048;-74
2022/05/24 04:12:01;;;;;;;25.55;17.50;;;14.00;99.90;;;;;;5038229;28;20177;-74
2022/05/24 04:14:31;;;;;;;26.42;17.15;;;14.00;99.90;;;;;;5037769;28;20045;-73
2022/05/24 04:16:57;;;;;;;23.38;14.80;;;14.00;99.90;;;;;;4999688;28;20053;-74
2022/05/24 04:19:23;;;;;;;24.00;14.13;;;14.00;99.90;;;;;;5036735;28;20063;-74
2022/05/24 04:21:48;;;;;;;24.20;16.27;;;14.10;99.90;;;;;;5005876;28;20087;-73
2022/05/24 04:24:14;;;;;;;27.92;17.55;;;14.10;99.90;;;;;;5040590;28;20059;-73
2022/05/24 04:26:41;;;;;;;23.52;16.60;;;14.10;99.90;;;;;;5021032;28;20077;-73
2022/05/24 04:29:06;;;;;;;21.40;14.65;;;14.10;99.90;;;;;;5039747;28;20098;-73
2022/05/24 04:31:32;;;;;;;27.75;15.90;;;14.10;99.90;;;;;;5022287;28;20049;-74
2022/05/24 04:33:58;;;;;;;24.27;16.45;;;14.20;99.90;;;;;;5040776;28;20520;-74
2022/05/24 04:36:24;;;;;;;24.88;15.65;;;14.20;99.90;;;;;;5040460;28;20126;-74
2022/05/24 04:38:50;;;;;;;21.45;15.52;;;14.20;99.90;;;;;;5040368;28;20888;-74
2022/05/24 04:44:00;;;;;;;20.80;13.88;;;14.20;99.90;;;;;;5036481;28;20132;-74
2022/05/24 04:47:06;;;;;;;22.85;14.32;;;14.20;99.90;;;;;;5036727;28;20053;-73
2022/05/24 04:49:12;;;;;;;18.00;12.10;;;14.20;99.90;;;;;;5035487;28;20053;-72
2022/05/24 04:51:38;;;;;;;24.95;15.73;;;14.30;99.90;;;;;;5036697;28;20191;-72
2022/05/24 04:54:04;;;;;;;25.50;14.52;;;14.30;99.90;;;;;;5036118;28;20063;-73
2022/05/24 04:56:29;;;;;;;22.98;13.85;;;14.30;99.90;;;;;;5036188;28;20083;-74
2022/05/24 04:58:55;;;;;;;20.42;14.52;;;14.40;99.90;;;;;;5035853;28;20041;-75
2022/05/24 05:01:21;;;;;;;18.58;13.63;;;14.40;99.90;;;;;;5018288;28;20036;-74
2022/05/24 05:03:46;;;;;;;20.92;13.93;;;14.40;99.90;;;;;;5036140;28;20587;-74
2022/05/24 05:06:12;;;;;;;18.55;12.77;;;14.40;99.90;;;;;;5034667;28;20056;-73
2022/05/24 05:08:38;;;;;;;17.13;13.40;;;14.50;99.90;;;;;;5016308;28;20493;-73
2022/05/24 05:11:04;;;;;;;16.90;12.60;;;14.50;99.90;;;;;;5017786;28;20851;-74
2022/05/24 05:13:30;;;;;;;12.65;10.93;;;14.50;99.90;;;;;;5017357;28;20743;-73
2022/05/24 05:15:55;;;;;;;23.30;13.73;;;14.50;99.90;;;;;;5009752;28;20049;-74
2022/05/24 05:18:22;;;;;;;16.95;12.13;;;14.60;99.90;;;;;;5018848;28;20049;-73
2022/05/24 05:20:49;;;;;;;15.15;12.80;;;14.60;99.90;;;;;;4985753;28;20052;-73
2022/05/24 05:23:16;;;;;;;20.30;11.85;;;14.60;99.90;;;;;;5036710;28;20649;-72
2022/05/24 05:25:47;;;;;;;17.73;12.45;;;14.60;99.90;;;;;;5037975;28;20041;-73
2022/05/24 05:28:16;;;;;;;21.73;13.20;;;14.60;99.90;;;;;;5036613;28;20052;-73
2022/05/24 05:33:27;;;;;;;15.93;10.77;;;14.70;99.90;;;;;;5037110;28;20057;-74
2022/05/24 05:35:54;;;;;;;15.90;12.10;;;14.70;99.90;;;;;;5039200;28;20101;-73
2022/05/24 05:38:20;;;;;;;15.68;12.13;;;14.60;99.90;;;;;;5020859;28;20052;-73
2022/05/24 05:40:48;;;;;;;20.20;11.70;;;14.60;99.90;;;;;;5038867;28;20077;-74
2022/05/24 05:43:14;;;;;;;15.15;11.27;;;14.70;99.90;;;;;;5038567;28;20053;-73
2022/05/24 05:45:40;;;;;;;18.98;12.68;;;14.70;99.90;;;;;;5038988;28;20110;-73
2022/05/24 05:48:06;;;;;;;23.40;13.65;;;14.70;99.90;;;;;;5039047;28;20106;-73
2022/05/24 05:50:31;;;;;;;22.52;14.73;;;14.70;99.90;;;;;;5038932;28;20055;-73
2022/05/24 05:52:57;;;;;;;24.15;15.02;;;14.70;99.90;;;;;;5018401;28;20048;-73
2022/05/24 05:55:25;;;;;;;22.55;14.52;;;14.70;99.90;;;;;;5037314;28;20567;-73
2022/05/24 05:57:51;;;;;;;21.45;13.60;;;14.70;99.90;;;;;;5038122;28;20087;-74
2022/05/24 06:00:17;;;;;;;21.33;13.65;;;14.70;99.90;;;;;;5038146;28;20192;-74
2022/05/24 06:02:43;;;;;;;19.70;11.77;;;14.80;99.90;;;;;;5038093;28;20060;-72
2022/05/24 06:05:10;;;;;;;18.10;12.80;;;14.90;99.90;;;;;;5038335;28;20049;-72
2022/05/24 06:07:36;;;;;;;19.48;12.73;;;14.80;99.90;;;;;;5038688;28;20045;-74
2022/05/24 06:10:03;;;;;;;20.15;14.07;;;14.90;99.90;;;;;;5037312;28;20104;-74
2022/05/24 06:12:29;;;;;;;21.20;13.77;;;14.90;99.90;;;;;;5036904;28;20132;-73
2022/05/24 06:14:54;;;;;;;17.98;12.10;;;15.00;99.90;;;;;;5036711;28;20404;-73
2022/05/24 06:17:21;;;;;;;20.80;12.52;;;15.10;99.90;;;;;;5034767;28;20080;-73
2022/05/24 06:19:47;;;;;;;20.88;12.00;;;15.20;99.90;;;;;;5036275;28;20143;-74
2022/05/24 06:22:13;;;;;;;16.77;12.77;;;15.20;99.90;;;;;;5017809;28;20069;-74
2022/05/24 06:24:38;;;;;;;20.63;12.45;;;15.20;99.90;;;;;;5038156;28;20052;-73
2022/05/24 06:27:05;;;;;;;17.77;12.77;;;15.30;99.90;;;;;;5031694;28;20137;-73
2022/05/24 06:29:33;;;;;;;23.15;12.05;;;15.30;99.90;;;;;;5036849;28;20170;-74
2022/05/24 06:32:01;;;;;;;15.80;10.55;;;15.30;99.90;;;;;;5038361;28;20378;-74
2022/05/24 06:34:26;;;;;;;19.42;11.88;;;15.30;99.90;;;;;;5038080;28;20386;-71
2022/05/24 06:36:52;;;;;;;14.82;10.85;;;15.30;99.90;;;;;;5034581;28;20496;-72
2022/05/24 06:39:18;;;;;;;18.15;10.93;;;15.30;99.90;;;;;;5035135;28;20051;-74
2022/05/24 06:41:44;;;;;;;19.58;12.02;;;15.30;99.90;;;;;;5037289;28;20048;-75
2022/05/24 06:44:09;;;;;;;20.33;11.90;;;15.30;99.90;;;;;;5036338;28;20156;-75
2022/05/24 06:46:35;;;;;;;16.70;11.55;;;15.30;99.90;;;;;;5034627;28;20568;-74
2022/05/24 06:49:01;;;;;;;20.13;12.18;;;15.30;99.90;;;;;;5035002;28;20143;-74
2022/05/24 06:51:27;;;;;;;22.10;11.75;;;15.40;99.90;;;;;;4981647;28;20048;-73
2022/05/24 06:53:52;;;;;;;19.30;10.25;;;15.40;99.90;;;;;;5032909;28;20049;-74
2022/05/24 06:56:18;;;;;;;12.32;9.48;;;15.40;99.90;;;;;;4995173;28;20044;-72
2022/05/24 06:58:44;;;;;;;16.08;9.50;;;15.40;99.90;;;;;;5013168;28;20064;-71
2022/05/24 07:03:56;;;;;;;16.13;9.82;;;15.40;99.90;;;;;;5034087;28;20064;-75
2022/05/24 07:06:22;;;;;;;16.83;10.32;;;15.50;99.90;;;;;;5018385;28;20049;-74
2022/05/24 07:08:49;;;;;;;16.08;11.50;;;15.50;99.90;;;;;;5018497;28;20051;-74
2022/05/24 07:11:17;;;;;;;19.70;9.98;;;15.50;99.90;;;;;;5037875;28;20037;-73
2022/05/24 07:13:43;;;;;;;13.85;9.15;;;15.50;99.90;;;;;;5035723;28;20140;-73
2022/05/24 07:16:09;;;;;;;12.75;9.05;;;15.50;99.90;;;;;;5015194;28;20152;-73
2022/05/24 07:18:37;;;;;;;16.27;8.73;;;15.40;99.90;;;;;;5036519;28;20147;-74
2022/05/24 07:21:04;;;;;;;14.50;8.57;;;15.40;99.90;;;;;;5038064;28;20076;-74
2022/05/24 07:23:32;;;;;;;13.00;9.65;;;15.30;99.90;;;;;;5038426;28;20048;-74
2022/05/24 07:26:09;;;;;;;13.73;9.02;;;15.40;99.90;;;;;;5038449;28;20507;-73
2022/05/24 07:28:36;;;;;;;12.15;9.93;;;15.40;99.90;;;;;;5020940;28;20053;-73
2022/05/24 07:31:02;;;;;;;16.00;9.90;;;15.40;99.90;;;;;;4687262;28;10000566;-73
2022/05/24 07:33:29;;;;;;;21.00;9.05;;;15.40;99.90;;;;;;5033667;28;20131;-75
2022/05/24 07:35:55;;;;;;;13.60;9.02;;;15.20;99.90;;;;;;5032865;28;20568;-74
2022/05/24 07:38:21;;;;;;;14.48;8.90;;;15.30;99.90;;;;;;5033594;28;20569;-74
2022/05/24 07:46:16;;;;;;;12.38;9.52;;;15.20;99.90;;;;;;5029611;28;20075;-74
2022/05/24 07:48:42;;;;;;;16.10;8.07;;;15.10;99.90;;;;;;5032548;28;20135;-73
2022/05/24 07:51:08;;;;;;;13.77;8.45;;;15.20;99.90;;;;;;5034537;28;20138;-73
2022/05/24 07:53:34;;;;;;;13.50;9.30;;;15.10;99.90;;;;;;5034851;28;20458;-74
2022/05/24 07:56:00;;;;;;;10.40;7.85;;;15.10;99.90;;;;;;5029670;28;20045;-71
2022/05/24 07:58:26;;;;;;;11.95;8.98;;;15.20;99.90;;;;;;5000264;28;20463;-72
2022/05/24 08:00:55;;;;;;;16.00;9.10;;;15.20;99.90;;;;;;5016422;28;20084;-71
2022/05/24 08:03:21;;;;;;;14.00;9.10;;;15.20;99.90;;;;;;5035537;28;20053;-72
2022/05/24 08:05:47;;;;;;;15.10;9.63;;;15.20;99.90;;;;;;5039336;28;20043;-71
2022/05/24 08:08:14;;;;;;;9.70;7.32;;;15.30;99.90;;;;;;5016015;28;20843;-71
2022/05/24 08:10:41;;;;;;;13.65;8.15;;;15.30;99.90;;;;;;5034805;28;20049;-70
2022/05/24 08:13:10;;;;;;;10.15;8.00;;;15.30;99.90;;;;;;5035061;28;20053;-71
2022/05/24 08:15:37;;;;;;;11.52;8.27;;;15.30;99.90;;;;;;5034739;28;20049;-71
2022/05/24 08:18:04;;;;;;;12.40;7.35;;;15.40;99.90;;;;;;5035666;28;20152;-71
2022/05/24 08:20:30;;;;;;;13.18;8.10;;;15.40;99.90;;;;;;5001555;28;20065;-70
2022/05/24 08:22:57;;;;;;;12.80;8.27;;;15.50;99.90;;;;;;5035800;28;20143;-70
2022/05/24 08:25:23;;;;;;;15.23;7.80;;;15.60;99.90;;;;;;5035142;28;20068;-70
2022/05/24 08:27:49;;;;;;;11.35;9.35;;;15.60;99.90;;;;;;5008858;28;20053;-71
2022/05/24 08:30:16;;;;;;;16.60;9.35;;;15.70;99.90;;;;;;5030858;28;21045;-71
2022/05/24 08:32:42;;;;;;;12.57;8.65;;;15.90;99.90;;;;;;5033069;28;20076;-71
2022/05/24 08:35:11;;;;;;;12.60;7.95;;;15.90;99.90;;;;;;5034473;28;20230;-70
2022/05/24 08:37:37;;;;;;;12.38;9.90;;;15.90;99.90;;;;;;5017456;28;20045;-71
2022/05/24 08:40:04;;;;;;;14.65;9.95;;;16.00;99.90;;;;;;5035418;28;20132;-70
2022/05/24 08:42:53;;;;;;;15.88;8.63;;;16.30;99.90;;;;;;5034479;28;20470;-70
2022/05/24 08:48:37;;;;;;;16.48;7.90;;;17.00;99.90;;;;;;5035418;28;20083;-70
2022/05/24 08:51:15;;;;;;;11.35;8.48;;;17.80;99.90;;;;;;5030919;28;20066;-70
2022/05/24 08:53:47;;;;;;;12.23;7.57;;;18.30;99.90;;;;;;5034113;28;20132;-70
2022/05/24 08:56:18;;;;;;;8.38;7.22;;;18.60;99.90;;;;;;5035019;28;20099;-70
2022/05/24 08:58:56;;;;;;;9.00;6.57;;;18.90;99.90;;;;;;5037586;28;20080;-71
2022/05/24 09:01:32;;;;;;;8.98;7.20;;;19.10;99.90;;;;;;5037013;28;20056;-71
2022/05/24 09:04:02;;;;;;;9.10;6.32;;;19.40;99.90;;;;;;5034574;28;20752;-71
2022/05/24 09:06:39;;;;;;;11.57;7.05;;;19.70;99.90;;;;;;5029969;28;20045;-71
2022/05/24 09:09:20;;;;;;;11.82;6.50;;;19.90;99.90;;;;;;5040192;28;20045;-71
2022/05/24 09:12:23;;;;;;;13.48;6.88;;;19.50;99.90;;;;;;5007073;28;20091;-71
2022/05/24 09:15:03;;;;;;;13.05;6.95;;;18.60;99.90;;;;;;5037073;28;20087;-70
2022/05/24 09:17:54;;;;;;;9.38;7.10;;;18.00;99.90;;;;;;5041727;28;20060;-70
2022/05/24 09:20:28;;;;;;;7.38;5.55;;;17.50;99.90;;;;;;5037626;28;20079;-70
2022/05/24 09:23:28;;;;;;;7.03;6.32;;;17.60;99.90;;;;;;5030771;28;20099;-70
2022/05/24 09:26:05;;;;;;;5.68;5.05;;;17.90;99.90;;;;;;5038608;28;20119;-71
2022/05/24 09:28:49;;;;;;;5.60;4.72;;;17.90;99.90;;;;;;5020505;28;20048;-72
2022/05/24 09:31:43;;;;;;;9.63;4.75;;;17.50;99.90;;;;;;5032744;28;20180;-71
2022/05/24 09:34:18;;;;;;;4.70;4.20;;;18.00;99.90;;;;;;5037523;28;20052;-70
2022/05/24 09:36:59;;;;;;;7.47;4.25;;;19.20;99.90;;;;;;5020272;28;20734;-71
2022/05/24 09:39:35;;;;;;;2.15;1.58;;;19.40;99.90;;;;;;5002780;28;20152;-71
2022/05/24 09:42:02;;;;;;;3.65;1.00;;;18.70;99.90;;;;;;5021235;28;20117;-71
2022/05/24 09:44:42;;;;;;;1.42;1.33;;;18.00;99.90;;;;;;5038526;28;20052;-71
2022/05/24 09:47:35;;;;;;;1.10;0.88;;;17.50;99.90;;;;;;5038718;28;20403;-71
2022/05/24 09:50:19;;;;;;;1.93;1.20;;;16.40;99.90;;;;;;5032404;28;20129;-71
2022/05/24 09:53:02;;;;;;;10.43;1.42;;;15.90;99.90;;;;;;5037918;28;20045;-71
2022/05/24 09:55:50;;;;;;;3.83;1.27;;;15.50;99.90;;;;;;5038353;28;20075;-72
2022/05/24 09:58:28;;;;;;;1.67;1.08;;;15.10;99.90;;;;;;5014839;28;20884;-70
2022/05/24 10:00:56;;;;;;;1.63;1.08;;;14.90;99.90;;;;;;5036953;28;20088;-71
2022/05/24 10:03:31;;;;;;;1.67;0.90;;;14.80;99.90;;;;;;5036426;28;20101;-72
2022/05/24 10:06:16;;;;;;;1.88;1.13;;;14.80;99.90;;;;;;5036480;28;20084;-72
2022/05/24 10:08:52;;;;;;;2.05;1.20;;;14.90;99.90;;;;;;5015667;28;20053;-73
2022/05/24 10:11:41;;;;;;;1.38;1.02;;;14.90;99.90;;;;;;5017916;28;20530;-72
2022/05/24 10:14:29;;;;;;;1.38;1.20;;;15.00;99.90;;;;;;5022029;28;20106;-72
2022/05/24 10:17:07;;;;;;;1.35;1.25;;;15.30;99.90;;;;;;5004819;28;20057;-73
2022/05/24 10:19:54;;;;;;;1.65;1.55;;;15.50;99.90;;;;;;5014732;28;20058;-72
2022/05/24 10:22:41;;;;;;;1.52;1.33;;;15.70;99.90;;;;;;5035289;28;20481;-74
2022/05/24 10:25:26;;;;;;;2.97;1.90;;;16.00;99.90;;;;;;5034706;28;20045;-71
2022/05/24 10:28:04;;;;;;;2.38;1.77;;;16.50;99.90;;;;;;5033894;28;20157;-72
2022/05/24 10:30:56;;;;;;;2.65;1.92;;;16.50;99.90;;;;;;5032871;28;20053;-73
2022/05/24 10:39:34;;;;;;;9.35;3.60;;;16.60;99.90;;;;;;5032141;28;20072;-82
2022/05/24 10:42:24;;;;;;;6.38;2.20;;;16.00;99.90;;;;;;5036587;28;20049;-75
2022/05/24 10:44:55;;;;;;;1.15;1.05;;;15.10;99.90;;;;;;5036216;28;20511;-73
2022/05/24 10:48:04;;;;;;;1.70;0.90;;;14.40;99.90;;;;;;5036117;28;20123;-73
2022/05/24 10:50:55;;;;;;;1.10;0.98;;;13.90;99.90;;;;;;5016102;28;20053;-75
2022/05/24 10:53:36;;;;;;;0.70;0.70;;;13.50;99.90;;;;;;5018348;28;20160;-73
2022/05/24 10:56:06;;;;;;;3.25;0.70;;;13.40;99.90;;;;;;5036490;28;20091;-82
2022/05/24 10:58:35;;;;;;;0.85;0.60;;;13.20;99.90;;;;;;5018435;28;20147;-82
2022/05/24 11:01:21;;;;;;;1.75;0.68;;;13.10;99.90;;;;;;5035421;28;20222;-76
2022/05/24 11:03:52;;;;;;;1.48;0.80;;;13.10;99.90;;;;;;5036494;28;20056;-78
2022/05/24 11:06:43;;;;;;;1.00;0.90;;;13.20;99.90;;;;;;5035942;28;20053;-80
2022/05/24 11:09:18;;;;;;;2.05;0.85;;;13.40;99.90;;;;;;5034205;28;20053;-73
2022/05/24 11:12:12;;;;;;;1.52;1.42;;;13.70;99.90;;;;;;5033355;28;20037;-72
2022/05/24 11:14:48;;;;;;;2.08;1.05;;;14.10;99.90;;;;;;5031639;28;20237;-72
2022/05/24 11:17:16;;;;;;;0.98;0.98;;;14.50;99.90;;;;;;5032807;28;20160;-72
2022/05/24 11:19:49;;;;;;;1.25;1.13;;;14.80;99.90;;;;;;5033228;28;20139;-72
2022/05/24 11:22:44;;;;;;;;;;;14.90;99.90;;;;;;5032278;28;20050;-72
2022/05/24 11:25:30;;;;;;;3.78;1.30;;;15.00;99.90;;;;;;5018540;28;19924;-72
2022/05/24 11:28:05;;;;;;;2.55;1.80;;;15.10;99.90;;;;;;5033040;28;20387;-73
2022/05/24 11:30:30;;;;;;;3.35;1.60;;;15.00;99.90;;;;;;5032263;28;20857;-72
2022/05/24 11:33:05;;;;;;;2.20;1.60;;;14.90;99.90;;;;;;5033573;28;20152;-72
2022/05/24 11:35:35;;;;;;;4.53;2.45;;;14.90;99.90;;;;;;5033101;28;20056;-72
2022/05/24 11:38:17;;;;;;;2.90;2.10;;;15.00;99.90;;;;;;5034466;28;20052;-72
2022/05/24 11:40:57;;;;;;;4.03;2.15;;;15.10;99.90;;;;;;5031114;28;20052;-71
2022/05/24 11:43:34;;;;;;;2.80;2.47;;;15.20;99.90;;;;;;5014028;28;20451;-72
2022/05/24 11:46:04;;;;;;;2.60;2.38;;;15.30;99.90;;;;;;5032013;28;20673;-72
2022/05/24 11:48:47;;;;;;;4.55;2.92;;;15.60;99.90;;;;;;5013177;28;20298;-71
2022/05/24 11:51:37;;;;;;;2.47;2.28;;;16.10;99.90;;;;;;5032699;28;20048;-73
2022/05/24 11:54:12;;;;;;;3.67;2.20;;;16.50;99.90;;;;;;5031625;28;20041;-72
2022/05/24 11:56:38;;;;;;;4.93;2.22;;;16.50;99.90;;;;;;5035295;28;20058;-72
2022/05/24 11:59:11;;;;;;;2.63;2.42;;;16.60;99.90;;;;;;5033440;28;20049;-72
2022/05/24 12:01:46;;;;;;;5.03;2.05;;;16.80;99.90;;;;;;5035590;28;20045;-72
2022/05/24 12:08:01;;;;;;;5.03;2.30;;;16.50;99.90;;;;;;5035385;28;20106;-72
2022/05/24 12:10:24;;;;;;;2.10;1.90;;;16.40;99.90;;;;;;5030481;28;20065;-72
2022/05/24 12:12:53;;;;;;;3.28;2.08;;;16.30;99.90;;;;;;5034472;28;20044;-72
2022/05/24 12:15:29;;;;;;;3.25;2.00;;;16.30;99.90;;;;;;5026854;28;20056;-72
2022/05/24 12:17:58;;;;;;;2.78;1.88;;;16.20;99.90;;;;;;5029014;28;20060;-72
2022/05/24 12:20:32;;;;;;;2.03;1.73;;;16.20;99.90;;;;;;5017458;28;20084;-73
2022/05/24 12:23:04;;;;;;;2.17;2.08;;;16.50;99.90;;;;;;5034507;28;20836;-72
2022/05/24 12:25:51;;;;;;;1.73;1.63;;;16.80;99.90;;;;;;5035033;28;20060;-73
2022/05/24 12:28:20;;;;;;;2.35;1.50;;;16.80;99.90;;;;;;5017081;28;20059;-72
2022/05/24 12:30:48;;;;;;;2.03;1.10;;;17.00;99.90;;;;;;5033644;28;20057;-72
2022/05/24 12:33:26;;;;;;;3.03;1.40;;;17.30;99.90;;;;;;5034844;28;20068;-72
2022/05/24 12:36:26;;;;;;;2.42;1.42;;;17.30;99.90;;;;;;5028757;28;20087;-72
2022/05/24 12:38:59;;;;;;;1.83;1.33;;;17.30;99.90;;;;;;5034936;28;20059;-73
2022/05/24 12:41:29;;;;;;;1.48;0.95;;;17.10;99.90;;;;;;5036006;28;20044;-72
2022/05/24 12:44:01;;;;;;;1.20;1.00;;;17.30;99.90;;;;;;5037078;28;20742;-77
2022/05/24 12:46:34;;;;;;;0.68;0.63;;;17.30;99.90;;;;;;5038237;28;20531;-72
2022/05/24 12:49:10;;;;;;;1.38;0.60;;;17.00;99.90;;;;;;5014333;28;20053;-71
2022/05/24 12:51:37;;;;;;;0.52;0.52;;;16.50;99.90;;;;;;5033460;28;20045;-70
2022/05/24 12:54:15;;;;;;;1.02;0.57;;;15.90;99.90;;;;;;5037739;28;20127;-70
2022/05/24 12:56:52;;;;;;;1.23;1.13;;;15.60;99.90;;;;;;5019737;28;20135;-69
2022/05/24 12:59:26;;;;;;;0.75;0.75;;;15.40;99.90;;;;;;5037813;28;20056;-69
2022/05/24 13:01:54;;;;;;;0.77;0.75;;;15.40;99.90;;;;;;5038238;28;20048;-69
2022/05/24 13:04:24;;;;;;;1.33;1.00;;;15.70;99.90;;;;;;5038940;28;20053;-70
2022/05/24 13:06:51;;;;;;;1.05;0.90;;;15.90;99.90;;;;;;5037931;28;20048;-70
2022/05/24 13:09:24;;;;;;;1.23;1.10;;;16.10;99.90;;;;;;5019357;28;20147;-69
2022/05/24 13:11:54;;;;;;;1.60;1.10;;;16.40;99.90;;;;;;5036656;28;20045;-70
2022/05/24 13:14:50;;;;;;;6.60;1.35;;;16.70;99.90;;;;;;5036903;28;20048;-69
2022/05/24 13:17:19;;;;;;;1.25;1.02;;;17.10;99.90;;;;;;5035006;28;20099;-69
2022/05/24 13:19:52;;;;;;;1.65;1.42;;;17.20;99.90;;;;;;5036917;28;20055;-68
2022/05/24 13:22:20;;;;;;;1.00;0.90;;;17.50;99.90;;;;;;5034468;28;20124;-69
2022/05/24 13:24:56;;;;;;;3.70;1.45;;;17.60;99.90;;;;;;5034604;28;20492;-71
2022/05/24 13:27:22;;;;;;;1.42;1.30;;;17.80;99.90;;;;;;5035460;28;20088;-68
2022/05/24 13:35:31;;;;;;;1.30;1.00;;;17.40;99.90;;;;;;5034644;28;20060;-70
2022/05/24 13:38:01;;;;;;;1.40;1.00;;;17.10;99.90;;;;;;5035921;28;20746;-69
2022/05/24 13:40:41;;;;;;;1.75;1.05;;;16.80;99.90;;;;;;5036419;28;20056;-69
2022/05/24 13:43:08;;;;;;;1.80;1.70;;;16.60;99.90;;;;;;5035655;28;21393;-69
2022/05/24 13:45:34;;;;;;;2.53;1.40;;;16.60;99.90;;;;;;5036347;28;20108;-69
2022/05/24 13:48:20;;;;;;;4.38;1.63;;;16.80;99.90;;;;;;5036110;28;20087;-69
2022/05/24 13:50:46;;;;;;;2.17;1.83;;;17.00;99.90;;;;;;5035613;28;20484;-70